createdAt,value
2018-06-11T00:01:48.630Z,20.10
2018-06-11T00:04:16.849Z,20.10
2018-06-11T00:06:45.033Z,20.10
2018-06-11T00:09:13.309Z,20.00
2018-06-11T00:11:41.524Z,19.90
2018-06-11T00:14:09.890Z,19.80
2018-06-11T00:16:38.158Z,19.80
2018-06-11T00:19:06.357Z,19.60
2018-06-11T00:21:34.572Z,19.30
2018-06-11T00:24:02.774Z,19.20
2018-06-11T00:26:31.030Z,19.30
2018-06-11T00:28:59.281Z,19.40
2018-06-11T00:31:27.481Z,19.50
2018-06-11T00:33:55.719Z,19.20
2018-06-11T00:36:24.005Z,19.10
2018-06-11T00:38:52.262Z,19.10
2018-06-11T00:41:20.509Z,19.10
2018-06-11T00:43:48.727Z,19.00
2018-06-11T00:46:16.966Z,18.90
2018-06-11T00:48:45.177Z,18.90
2018-06-11T00:51:13.449Z,18.80
2018-06-11T00:53:41.734Z,18.80
2018-06-11T00:56:10.342Z,18.60
2018-06-11T00:58:38.645Z,18.50
2018-06-11T01:01:06.902Z,18.40
2018-06-11T01:03:35.170Z,18.40
2018-06-11T01:06:03.418Z,18.50
2018-06-11T01:08:31.619Z,18.50
2018-06-11T01:10:59.880Z,18.60
2018-06-11T01:13:28.082Z,18.70
2018-06-11T01:15:56.342Z,18.70
2018-06-11T01:18:24.581Z,18.80
2018-06-11T01:20:52.796Z,18.80
2018-06-11T01:23:21.029Z,18.70
2018-06-11T01:25:49.245Z,18.70
2018-06-11T01:28:17.519Z,18.80
2018-06-11T01:30:45.770Z,18.90
2018-06-11T01:33:13.996Z,19.00
2018-06-11T01:35:42.274Z,19.10
2018-06-11T01:38:10.466Z,19.10
2018-06-11T01:40:38.718Z,19.10
2018-06-11T01:43:06.957Z,19.10
2018-06-11T01:45:35.161Z,19.00
2018-06-11T01:48:03.397Z,19.00
2018-06-11T01:50:31.596Z,19.00
2018-06-11T01:52:59.816Z,19.00
2018-06-11T01:55:28.051Z,19.00
2018-06-11T02:00:24.240Z,18.80
2018-06-11T02:02:52.434Z,18.60
2018-06-11T02:05:20.690Z,18.60
2018-06-11T02:07:48.925Z,18.50
2018-06-11T02:10:17.161Z,18.50
2018-06-11T02:12:45.393Z,18.40
2018-06-11T02:15:13.633Z,18.40
2018-06-11T02:17:41.930Z,18.40
2018-06-11T02:20:10.221Z,18.40
2018-06-11T02:22:38.447Z,18.40
2018-06-11T02:25:06.737Z,18.40
2018-06-11T02:27:34.947Z,18.40
2018-06-11T02:30:03.284Z,18.40
2018-06-11T02:32:31.545Z,18.40
2018-06-11T02:34:59.742Z,18.50
2018-06-11T02:37:27.985Z,18.50
2018-06-11T02:39:56.194Z,18.60
2018-06-11T02:44:52.477Z,18.70
2018-06-11T02:47:20.694Z,18.60
2018-06-11T02:49:48.917Z,18.60
2018-06-11T02:52:17.121Z,18.50
2018-06-11T02:54:45.386Z,18.20
2018-06-11T02:57:13.683Z,18.20
2018-06-11T02:59:41.875Z,18.20
2018-06-11T03:02:10.111Z,18.40
2018-06-11T03:04:38.302Z,18.50
2018-06-11T03:07:06.549Z,18.30
2018-06-11T03:09:34.798Z,18.30
2018-06-11T03:12:02.998Z,18.40
2018-06-11T03:14:31.221Z,18.50
2018-06-11T03:16:59.434Z,18.40
2018-06-11T03:19:27.685Z,18.50
2018-06-11T03:21:55.913Z,18.50
2018-06-11T03:24:24.162Z,18.60
2018-06-11T03:26:52.422Z,18.70
2018-06-11T03:29:20.641Z,18.70
2018-06-11T03:31:48.873Z,18.60
2018-06-11T03:34:17.122Z,18.70
2018-06-11T03:36:45.314Z,18.70
2018-06-11T03:39:13.569Z,18.70
2018-06-11T03:41:41.777Z,18.70
2018-06-11T03:44:10.022Z,18.70
2018-06-11T03:46:38.249Z,18.80
2018-06-11T03:49:06.448Z,18.80
2018-06-11T03:51:34.677Z,18.70
2018-06-11T03:54:02.995Z,18.70
2018-06-11T03:56:31.250Z,18.60
2018-06-11T03:58:59.481Z,18.60
2018-06-11T04:01:27.727Z,18.40
2018-06-11T04:03:55.976Z,18.40
2018-06-11T04:06:24.181Z,18.40
2018-06-11T04:08:52.409Z,18.40
2018-06-11T04:11:20.644Z,18.40
2018-06-11T04:13:48.879Z,18.50
2018-06-11T04:16:19.041Z,18.60
2018-06-11T04:18:47.257Z,18.70
2018-06-11T04:21:15.506Z,18.70
2018-06-11T04:23:43.767Z,18.70
2018-06-11T04:26:11.967Z,18.80
2018-06-11T04:28:40.209Z,19.00
2018-06-11T04:31:08.444Z,19.10
2018-06-11T04:33:36.683Z,19.00
2018-06-11T04:36:04.923Z,18.70
2018-06-11T04:38:33.127Z,18.80
2018-06-11T04:41:01.366Z,18.70
2018-06-11T04:43:29.607Z,18.80
2018-06-11T04:45:57.859Z,18.80
2018-06-11T04:53:22.029Z,19.10
2018-06-11T04:55:50.249Z,19.00
2018-06-11T04:58:18.501Z,19.20
2018-06-11T05:00:46.870Z,19.10
2018-06-11T05:03:15.084Z,19.20
2018-06-11T05:05:43.316Z,19.30
2018-06-11T05:08:11.528Z,19.40
2018-06-11T05:13:07.958Z,19.70
2018-06-11T05:15:36.196Z,19.90
2018-06-11T05:18:04.460Z,20.20
2018-06-11T05:20:32.750Z,20.50
2018-06-11T05:23:01.081Z,20.80
2018-06-11T05:25:29.335Z,21.20
2018-06-11T05:27:57.554Z,21.40
2018-06-11T05:30:25.811Z,21.80
2018-06-11T05:35:22.000Z,22.30
2018-06-11T05:37:50.381Z,22.60
2018-06-11T05:40:18.663Z,22.90
2018-06-11T05:42:47.042Z,23.10
2018-06-11T05:45:15.299Z,23.00
2018-06-11T05:47:43.561Z,23.10
2018-06-11T05:50:11.793Z,23.20
2018-06-11T05:52:39.981Z,23.50
2018-06-11T05:55:08.228Z,23.90
2018-06-11T05:57:36.436Z,24.20
2018-06-11T06:00:05.258Z,24.20
2018-06-11T06:02:34.118Z,24.30
2018-06-11T06:05:02.336Z,24.40
2018-06-11T06:07:30.577Z,24.50
2018-06-11T06:09:58.823Z,24.60
2018-06-11T06:12:27.103Z,24.70
2018-06-11T06:14:55.364Z,24.60
2018-06-11T06:17:23.586Z,24.90
2018-06-11T06:19:51.819Z,24.80
2018-06-11T06:22:20.059Z,25.00
2018-06-11T06:24:48.347Z,25.10
2018-06-11T06:27:16.584Z,25.30
2018-06-11T06:29:44.815Z,25.40
2018-06-11T06:32:13.063Z,25.20
2018-06-11T06:34:41.342Z,25.10
2018-06-11T06:37:09.598Z,25.40
2018-06-11T06:39:37.842Z,25.50
2018-06-11T06:42:06.134Z,25.70
2018-06-11T06:44:34.402Z,25.80
2018-06-11T06:47:03.214Z,26.20
2018-06-11T06:49:31.479Z,26.40
2018-06-11T06:51:59.731Z,26.70
2018-06-11T06:54:27.921Z,26.90
2018-06-11T06:56:56.194Z,26.60
2018-06-11T06:59:24.414Z,26.90
2018-06-11T07:01:52.748Z,26.80
2018-06-11T07:04:21.096Z,26.40
2018-06-11T07:06:49.290Z,26.20
2018-06-11T07:09:17.559Z,26.30
2018-06-11T07:11:45.762Z,26.70
2018-06-11T07:14:14.015Z,26.60
2018-06-11T07:16:42.273Z,26.80
2018-06-11T07:19:10.475Z,26.80
2018-06-11T07:21:38.730Z,27.00
2018-06-11T07:24:07.058Z,27.10
2018-06-11T07:26:35.360Z,27.30
2018-06-11T07:29:03.699Z,27.30
2018-06-11T07:31:31.943Z,27.40
2018-06-11T07:34:00.530Z,27.20
2018-06-11T07:36:28.765Z,27.20
2018-06-11T07:38:57.005Z,27.40
2018-06-11T07:41:25.248Z,27.30
2018-06-11T07:43:53.452Z,27.20
2018-06-11T07:46:21.709Z,27.40
2018-06-11T07:48:49.906Z,27.90
2018-06-11T07:51:18.200Z,28.30
2018-06-11T07:53:46.477Z,28.30
2018-06-11T07:56:14.740Z,28.50
2018-06-11T07:58:42.993Z,28.40
2018-06-11T08:01:11.194Z,28.00
2018-06-11T08:03:39.468Z,28.20
2018-06-11T08:06:07.681Z,28.40
2018-06-11T08:08:35.927Z,28.80
2018-06-11T08:11:04.164Z,29.10
2018-06-11T08:13:32.405Z,29.30
2018-06-11T08:16:00.623Z,28.70
2018-06-11T08:18:28.836Z,28.50
2018-06-11T08:20:57.122Z,28.30
2018-06-11T08:23:25.390Z,28.20
2018-06-11T08:25:53.625Z,28.60
2018-06-11T08:28:21.950Z,28.80
2018-06-11T08:30:50.229Z,28.80
2018-06-11T08:33:18.509Z,29.10
2018-06-11T08:35:46.774Z,29.40
2018-06-11T08:38:14.952Z,29.40
2018-06-11T08:40:43.194Z,29.40
2018-06-11T08:43:11.480Z,29.60
2018-06-11T08:45:39.721Z,29.40
2018-06-11T08:48:07.962Z,29.40
2018-06-11T08:50:36.166Z,29.60
2018-06-11T08:53:04.582Z,29.70
2018-06-11T08:55:32.867Z,29.10
2018-06-11T08:58:01.122Z,28.60
2018-06-11T09:00:29.417Z,28.80
2018-06-11T09:02:57.615Z,29.10
2018-06-11T09:05:25.893Z,29.40
2018-06-11T09:07:54.093Z,29.50
2018-06-11T09:10:22.377Z,29.40
2018-06-11T09:12:50.629Z,29.60
2018-06-11T09:15:18.854Z,29.70
2018-06-11T09:17:47.097Z,29.60
2018-06-11T09:20:15.301Z,29.70
2018-06-11T09:22:45.749Z,29.90
2018-06-11T09:25:14.093Z,29.90
2018-06-11T09:27:42.358Z,30.00
2018-06-11T09:30:10.646Z,30.20
2018-06-11T09:32:38.971Z,30.50
2018-06-11T09:37:35.589Z,30.00
2018-06-11T09:40:04.353Z,30.10
2018-06-11T09:42:32.638Z,30.10
2018-06-11T09:45:00.882Z,29.90
2018-06-11T09:47:29.212Z,29.80
2018-06-11T09:49:57.462Z,29.90
2018-06-11T09:52:25.759Z,30.10
2018-06-11T09:54:53.994Z,30.10
2018-06-11T09:57:22.213Z,30.30
2018-06-11T09:59:50.438Z,30.20
2018-06-11T10:02:18.678Z,30.30
2018-06-11T10:04:46.929Z,30.60
2018-06-11T10:07:15.179Z,30.70
2018-06-11T10:09:43.382Z,30.70
2018-06-11T10:12:11.658Z,30.70
2018-06-11T10:14:39.887Z,30.80
2018-06-11T10:17:08.154Z,30.70
2018-06-11T10:19:36.432Z,30.40
2018-06-11T10:22:04.750Z,30.40
2018-06-11T10:24:33.014Z,30.30
2018-06-11T10:27:01.236Z,30.40
2018-06-11T10:29:29.597Z,30.70
2018-06-11T10:31:57.925Z,31.00
2018-06-11T10:34:26.234Z,31.40
2018-06-11T10:36:54.561Z,31.70
2018-06-11T10:39:22.793Z,31.90
2018-06-11T10:41:51.007Z,31.40
2018-06-11T10:44:19.254Z,30.90
2018-06-11T10:46:47.455Z,31.10
2018-06-11T10:49:15.703Z,31.30
2018-06-11T10:51:43.916Z,31.50
2018-06-11T10:54:12.140Z,31.60
2018-06-11T10:56:40.390Z,30.80
2018-06-11T10:59:08.605Z,30.40
2018-06-11T11:01:36.864Z,30.70
2018-06-11T11:04:05.134Z,31.30
2018-06-11T11:06:33.414Z,31.50
2018-06-11T11:09:01.746Z,31.90
2018-06-11T11:11:30.464Z,32.00
2018-06-11T11:13:59.199Z,30.80
2018-06-11T11:16:28.359Z,30.90
2018-06-11T11:18:57.071Z,31.00
2018-06-11T11:21:25.778Z,31.20
2018-06-11T11:23:56.091Z,31.40
2018-06-11T11:26:24.355Z,31.40
2018-06-11T11:28:52.597Z,31.60
2018-06-11T11:31:20.943Z,31.50
2018-06-11T11:33:49.187Z,31.00
2018-06-11T11:36:17.962Z,31.00
2018-06-11T11:38:46.696Z,31.50
2018-06-11T11:41:15.406Z,31.90
2018-06-11T11:43:44.150Z,31.70
2018-06-11T11:46:12.853Z,32.10
2018-06-11T11:48:41.721Z,32.20
2018-06-11T11:51:10.575Z,32.40
2018-06-11T11:53:38.747Z,32.20
2018-06-11T11:56:06.984Z,32.60
2018-06-11T11:58:35.231Z,32.70
2018-06-11T12:01:03.498Z,32.90
2018-06-11T12:03:31.744Z,32.90
2018-06-11T12:05:59.963Z,32.30
2018-06-11T12:08:28.196Z,31.70
2018-06-11T12:10:56.404Z,31.40
2018-06-11T12:13:24.693Z,31.80
2018-06-11T12:15:52.962Z,32.20
2018-06-11T12:18:21.214Z,32.40
2018-06-11T12:20:49.497Z,32.50
2018-06-11T12:23:17.741Z,32.10
2018-06-11T12:25:45.992Z,32.10
2018-06-11T12:28:14.290Z,32.30
2018-06-11T12:30:42.506Z,32.60
2018-06-11T12:33:10.760Z,32.80
2018-06-11T12:35:38.971Z,32.90
2018-06-11T12:38:07.313Z,32.80
2018-06-11T12:40:35.569Z,32.70
2018-06-11T12:43:03.812Z,32.60
2018-06-11T12:45:32.066Z,32.80
2018-06-11T12:48:00.319Z,32.40
2018-06-11T12:50:28.589Z,32.20
2018-06-11T12:52:56.868Z,32.40
2018-06-11T12:55:25.134Z,32.50
2018-06-11T12:57:53.395Z,32.80
2018-06-11T13:00:21.649Z,33.00
2018-06-11T13:02:49.895Z,32.90
2018-06-11T13:05:18.169Z,33.30
2018-06-11T13:07:46.405Z,33.70
2018-06-11T13:10:14.698Z,33.80
2018-06-11T13:12:42.977Z,33.40
2018-06-11T13:15:11.243Z,33.30
2018-06-11T13:17:39.547Z,33.30
2018-06-11T13:20:07.782Z,33.20
2018-06-11T13:22:36.071Z,32.40
2018-06-11T13:25:04.404Z,31.60
2018-06-11T13:27:32.668Z,30.90
2018-06-11T13:30:00.924Z,30.80
2018-06-11T13:32:29.162Z,30.60
2018-06-11T13:34:57.460Z,30.80
2018-06-11T13:37:25.766Z,31.00
2018-06-11T13:39:54.082Z,30.90
2018-06-11T13:42:22.448Z,30.50
2018-06-11T13:44:50.705Z,30.30
2018-06-11T13:47:18.995Z,29.90
2018-06-11T13:49:47.214Z,29.70
2018-06-11T13:52:15.513Z,29.10
2018-06-11T13:54:43.786Z,28.80
2018-06-11T13:57:12.036Z,28.50
2018-06-11T13:59:40.341Z,28.60
2018-06-11T14:02:08.582Z,28.50
2018-06-11T14:04:36.886Z,28.40
2018-06-11T14:09:33.207Z,27.90
2018-06-11T14:12:01.483Z,27.80
2018-06-11T14:14:29.707Z,27.50
2018-06-11T14:16:58.000Z,27.30
2018-06-11T14:19:26.270Z,27.20
2018-06-11T14:21:54.546Z,27.10
2018-06-11T14:24:22.809Z,27.00
2018-06-11T14:26:51.076Z,27.10
2018-06-11T14:29:19.373Z,27.20
2018-06-11T14:31:47.630Z,27.30
2018-06-11T14:34:15.881Z,27.40
2018-06-11T14:36:44.205Z,27.40
2018-06-11T14:39:12.457Z,27.50
2018-06-11T14:41:40.733Z,27.80
2018-06-11T14:44:09.013Z,28.20
2018-06-11T14:46:37.274Z,28.60
2018-06-11T14:49:05.561Z,29.20
2018-06-11T14:51:33.808Z,29.70
2018-06-11T14:54:02.092Z,29.90
2018-06-11T14:56:30.362Z,30.40
2018-06-11T14:58:58.610Z,30.80
2018-06-11T15:01:26.882Z,31.10
2018-06-11T15:03:55.125Z,31.00
2018-06-11T15:06:23.399Z,31.10
2018-06-11T15:08:51.680Z,31.10
2018-06-11T15:11:19.879Z,31.10
2018-06-11T15:13:48.129Z,31.00
2018-06-11T15:16:16.367Z,30.70
2018-06-11T15:18:44.643Z,30.30
2018-06-11T15:21:12.897Z,30.00
2018-06-11T15:23:41.122Z,29.90
2018-06-11T15:26:09.395Z,29.60
2018-06-11T15:28:37.653Z,29.30
2018-06-11T15:31:05.913Z,29.10
2018-06-11T15:33:34.129Z,28.80
2018-06-11T15:36:02.375Z,28.60
2018-06-11T15:38:30.668Z,28.50
2018-06-11T15:40:58.910Z,28.30
2018-06-11T15:43:27.173Z,28.20
2018-06-11T15:45:55.391Z,28.00
2018-06-11T15:48:23.732Z,27.80
2018-06-11T15:50:52.009Z,27.50
2018-06-11T15:55:13.103Z,27.30
2018-06-11T15:57:41.299Z,27.00
2018-06-11T16:00:09.546Z,26.90
2018-06-11T16:02:38.253Z,26.90
2018-06-11T16:05:06.535Z,27.00
2018-06-11T16:07:34.758Z,27.10
2018-06-11T16:10:03.046Z,27.30
2018-06-11T16:12:31.284Z,27.40
2018-06-11T16:14:59.588Z,27.50
2018-06-11T16:17:27.867Z,27.70
2018-06-11T16:19:56.119Z,27.90
2018-06-11T16:22:24.350Z,28.00
2018-06-11T16:24:52.677Z,28.20
2018-06-11T16:27:20.916Z,28.20
2018-06-11T16:29:49.154Z,28.30
2018-06-11T16:32:17.422Z,28.30
2018-06-11T16:34:45.641Z,28.30
2018-06-11T16:37:13.885Z,28.30
2018-06-11T16:39:42.170Z,28.20
2018-06-11T16:42:10.391Z,28.10
2018-06-11T16:44:38.635Z,28.00
2018-06-11T16:49:34.861Z,27.80
2018-06-11T16:52:03.107Z,27.80
2018-06-11T16:54:31.353Z,27.70
2018-06-11T16:56:59.562Z,27.60
2018-06-11T16:59:27.854Z,27.20
2018-06-11T17:04:24.095Z,27.00
2018-06-11T17:06:52.362Z,26.90
2018-06-11T17:09:20.606Z,26.90
2018-06-11T17:11:48.877Z,26.90
2018-06-11T17:14:17.132Z,26.90
2018-06-11T17:16:45.450Z,26.90
2018-06-11T17:19:13.717Z,26.60
2018-06-11T17:21:42.004Z,26.50
2018-06-11T17:24:10.256Z,26.30
2018-06-11T17:26:38.540Z,26.30
2018-06-11T17:29:06.786Z,26.20
2018-06-11T17:31:35.146Z,26.10
2018-06-11T17:34:03.446Z,26.10
2018-06-11T17:36:31.782Z,26.20
2018-06-11T17:39:00.114Z,26.40
2018-06-11T17:41:28.419Z,26.50
2018-06-11T17:43:56.657Z,26.40
2018-06-11T17:46:24.926Z,26.30
2018-06-11T17:48:53.194Z,26.10
2018-06-11T17:51:21.535Z,26.00
2018-06-11T17:53:49.788Z,25.90
2018-06-11T17:56:18.036Z,25.90
2018-06-11T17:58:46.328Z,25.90
2018-06-11T18:01:14.563Z,25.90
2018-06-11T18:03:42.823Z,25.90
2018-06-11T18:06:11.114Z,25.90
2018-06-11T18:11:07.390Z,26.00
2018-06-11T18:13:35.610Z,26.00
2018-06-11T18:16:03.885Z,25.90
2018-06-11T18:18:32.129Z,25.90
2018-06-11T18:21:00.611Z,25.80
2018-06-11T18:23:28.885Z,25.40
2018-06-11T18:25:57.119Z,25.20
2018-06-11T18:28:25.389Z,25.10
2018-06-11T18:30:53.729Z,24.90
2018-06-11T18:33:21.989Z,24.80
2018-06-11T18:35:50.315Z,24.70
2018-06-11T18:38:19.115Z,24.50
2018-06-11T18:40:47.405Z,24.40
2018-06-11T18:43:16.509Z,24.20
2018-06-11T18:45:44.778Z,24.00
2018-06-11T18:48:13.063Z,23.90
2018-06-11T18:50:41.318Z,23.80
2018-06-11T18:53:09.653Z,23.90
2018-06-11T18:55:38.853Z,23.80
2018-06-11T18:58:07.117Z,23.80
2018-06-11T19:00:35.414Z,23.60
2018-06-11T19:03:03.729Z,23.50
2018-06-11T19:05:31.961Z,23.40
2018-06-11T19:08:00.664Z,23.30
2018-06-11T19:10:30.601Z,23.10
2018-06-11T19:12:58.828Z,22.90
2018-06-11T19:15:27.409Z,22.50
2018-06-11T19:17:55.649Z,22.20
2018-06-11T19:20:23.896Z,22.00
2018-06-11T19:22:52.086Z,21.80
2018-06-11T19:25:20.374Z,21.60
2018-06-11T19:27:48.713Z,21.50
2018-06-11T19:30:16.991Z,21.50
2018-06-11T19:32:45.290Z,21.40
2018-06-11T19:35:14.376Z,21.30
2018-06-11T19:37:42.666Z,21.20
2018-06-11T19:40:10.945Z,21.10
2018-06-11T19:42:39.197Z,21.10
2018-06-11T19:45:07.472Z,21.00
2018-06-11T19:47:35.716Z,20.90
2018-06-11T19:50:04.074Z,20.70
2018-06-11T19:52:32.295Z,20.60
2018-06-11T19:55:01.581Z,20.70
2018-06-11T19:57:29.905Z,20.70
2018-06-11T19:59:58.121Z,20.60
2018-06-11T20:02:26.382Z,20.70
2018-06-11T20:04:54.623Z,20.70
2018-06-11T20:07:22.877Z,20.70
2018-06-11T20:09:51.119Z,20.70
2018-06-11T20:12:19.388Z,20.70
2018-06-11T20:14:47.659Z,20.60
2018-06-11T20:17:17.038Z,20.40
2018-06-11T20:19:45.277Z,20.30
2018-06-11T20:22:13.521Z,20.40
2018-06-11T20:24:41.726Z,20.30
2018-06-11T20:27:09.958Z,20.30
2018-06-11T20:29:38.196Z,20.40
2018-06-11T20:32:06.558Z,20.40
2018-06-11T20:34:34.821Z,20.30
2018-06-11T20:37:03.119Z,20.20
2018-06-11T20:39:31.451Z,20.10
2018-06-11T20:41:59.741Z,20.10
2018-06-11T20:44:28.049Z,20.10
2018-06-11T20:46:56.369Z,20.10
2018-06-11T20:49:25.555Z,20.20
2018-06-11T20:51:53.870Z,20.20
2018-06-11T20:54:22.126Z,20.10
2018-06-11T20:56:50.382Z,20.00
2018-06-11T20:59:18.681Z,19.90
2018-06-11T21:01:46.979Z,20.00
2018-06-11T21:04:15.312Z,20.00
2018-06-11T21:06:43.538Z,20.10
2018-06-11T21:09:11.795Z,20.10
2018-06-11T21:11:40.085Z,20.30
2018-06-11T21:14:08.315Z,20.30
2018-06-11T21:16:36.604Z,20.50
2018-06-11T21:19:04.891Z,20.50
2018-06-11T21:21:33.154Z,20.50
2018-06-11T21:24:01.438Z,20.60
2018-06-11T21:26:29.669Z,20.60
2018-06-11T21:28:57.943Z,20.60
2018-06-11T21:31:26.153Z,20.70
2018-06-11T21:33:54.414Z,20.60
2018-06-11T21:36:22.654Z,20.70
2018-06-11T21:38:50.860Z,20.60
2018-06-11T21:41:19.141Z,20.60
2018-06-11T21:43:47.424Z,20.50
2018-06-11T21:46:15.784Z,20.50
2018-06-11T21:48:44.155Z,20.50
2018-06-11T21:51:12.414Z,20.50
2018-06-11T21:53:40.686Z,20.60
2018-06-11T21:56:08.936Z,20.60
2018-06-11T21:58:37.198Z,20.50
2018-06-11T22:01:05.601Z,20.60
2018-06-11T22:03:33.933Z,20.60
2018-06-11T22:06:02.132Z,20.50
2018-06-11T22:08:30.385Z,20.50
2018-06-11T22:10:58.859Z,20.50
2018-06-11T22:13:27.061Z,20.30
2018-06-11T22:15:55.308Z,20.30
2018-06-11T22:18:23.555Z,20.30
2018-06-11T22:20:51.814Z,20.20
2018-06-11T22:23:20.057Z,20.20
2018-06-11T22:25:48.301Z,20.10
2018-06-11T22:28:16.525Z,20.10
2018-06-11T22:30:44.817Z,20.10
2018-06-11T22:33:13.069Z,20.10
2018-06-11T22:35:41.303Z,20.10
2018-06-11T22:38:09.557Z,20.10
2018-06-11T22:40:37.845Z,20.10
2018-06-11T22:43:06.057Z,20.10
2018-06-11T22:45:34.324Z,20.10
2018-06-11T22:50:30.586Z,20.10
2018-06-11T22:52:58.869Z,20.10
2018-06-11T22:55:27.141Z,20.20
2018-06-11T22:57:55.361Z,20.10
2018-06-11T23:00:28.147Z,20.20
2018-06-11T23:02:56.434Z,20.10
2018-06-11T23:05:24.672Z,20.00
2018-06-11T23:07:52.913Z,19.90
2018-06-11T23:10:21.155Z,19.90
2018-06-11T23:12:49.374Z,19.90
2018-06-11T23:15:17.665Z,19.70
2018-06-11T23:20:13.857Z,19.80
2018-06-11T23:22:42.099Z,19.90
2018-06-11T23:25:10.319Z,19.80
2018-06-11T23:27:38.558Z,19.80
2018-06-11T23:30:06.811Z,19.80
2018-06-11T23:32:35.025Z,19.90
2018-06-11T23:35:03.265Z,19.70
2018-06-11T23:37:31.544Z,19.80
2018-06-11T23:39:59.769Z,19.80
2018-06-11T23:42:28.017Z,19.80
2018-06-11T23:44:56.266Z,19.90
2018-06-11T23:47:24.504Z,19.90
2018-06-11T23:49:52.749Z,19.90
2018-06-11T23:52:21.001Z,19.80
2018-06-11T23:54:49.230Z,19.90
2018-06-11T23:57:17.474Z,19.90
2018-06-11T23:59:45.725Z,19.80
